sensor_id;sensor_type;location;lat;lon;timestamp;temperature;humidity
21306;DHT22;10812;51.838;5.838;2023-08-20T00:00:09;18.70;99.90
21306;DHT22;10812;51.838;5.838;2023-08-20T00:02:39;18.70;99.90
21306;DHT22;10812;51.838;5.838;2023-08-20T00:16:26;19.00;99.90
21306;DHT22;10812;51.838;5.838;2023-08-20T00:18:55;19.00;99.90
21306;DHT22;10812;51.838;5.838;2023-08-20T00:21:23;19.00;99.90
21306;DHT22;10812;51.838;5.838;2023-08-20T00:23:53;18.90;99.90
21306;DHT22;10812;51.838;5.838;2023-08-20T00:26:21;18.80;99.90
21306;DHT22;10812;51.838;5.838;2023-08-20T00:47:18;18.40;99.90
21306;DHT22;10812;51.838;5.838;2023-08-20T00:49:47;18.40;99.90
21306;DHT22;10812;51.838;5.838;2023-08-20T00:52:16;18.20;99.90
21306;DHT22;10812;51.838;5.838;2023-08-20T00:54:45;18.20;99.90
21306;DHT22;10812;51.838;5.838;2023-08-20T00:57:15;18.10;99.90
21306;DHT22;10812;51.838;5.838;2023-08-20T00:59:47;18.10;99.90
21306;DHT22;10812;51.838;5.838;2023-08-20T01:02:18;18.10;99.90
21306;DHT22;10812;51.838;5.838;2023-08-20T01:04:47;18.20;99.90
21306;DHT22;10812;51.838;5.838;2023-08-20T01:07:21;18.30;99.90
21306;DHT22;10812;51.838;5.838;2023-08-20T01:09:57;18.30;99.90
21306;DHT22;10812;51.838;5.838;2023-08-20T01:12:29;18.40;99.90
21306;DHT22;10812;51.838;5.838;2023-08-20T01:14:57;18.50;99.90
21306;DHT22;10812;51.838;5.838;2023-08-20T01:17:26;18.60;99.90
21306;DHT22;10812;51.838;5.838;2023-08-20T01:19:55;18.60;99.90
21306;DHT22;10812;51.838;5.838;2023-08-20T01:22:49;18.60;99.90
21306;DHT22;10812;51.838;5.838;2023-08-20T01:25:32;18.70;99.90
21306;DHT22;10812;51.838;5.838;2023-08-20T01:28:23;18.70;99.90
21306;DHT22;10812;51.838;5.838;2023-08-20T01:30:56;18.80;99.90
21306;DHT22;10812;51.838;5.838;2023-08-20T01:33:25;18.80;99.90
21306;DHT22;10812;51.838;5.838;2023-08-20T01:35:54;18.90;99.90
21306;DHT22;10812;51.838;5.838;2023-08-20T01:38:22;18.90;99.90
21306;DHT22;10812;51.838;5.838;2023-08-20T01:40:50;19.00;99.90
21306;DHT22;10812;51.838;5.838;2023-08-20T01:43:20;19.00;99.90
21306;DHT22;10812;51.838;5.838;2023-08-20T01:45:48;19.00;99.90
21306;DHT22;10812;51.838;5.838;2023-08-20T01:48:16;19.10;99.90
21306;DHT22;10812;51.838;5.838;2023-08-20T01:50:44;19.10;99.90
21306;DHT22;10812;51.838;5.838;2023-08-20T01:53:13;19.10;99.90
21306;DHT22;10812;51.838;5.838;2023-08-20T01:55:41;19.00;99.90
21306;DHT22;10812;51.838;5.838;2023-08-20T01:58:09;19.00;99.90
21306;DHT22;10812;51.838;5.838;2023-08-20T02:00:38;19.00;99.90
21306;DHT22;10812;51.838;5.838;2023-08-20T02:03:06;19.10;99.90
21306;DHT22;10812;51.838;5.838;2023-08-20T02:05:35;19.10;99.90
21306;DHT22;10812;51.838;5.838;2023-08-20T02:08:03;19.10;99.90
21306;DHT22;10812;51.838;5.838;2023-08-20T02:10:32;19.10;99.90
21306;DHT22;10812;51.838;5.838;2023-08-20T02:13:00;19.10;99.90
21306;DHT22;10812;51.838;5.838;2023-08-20T02:15:28;19.00;99.90
21306;DHT22;10812;51.838;5.838;2023-08-20T02:17:58;19.00;99.90
21306;DHT22;10812;51.838;5.838;2023-08-20T02:20:28;18.90;99.90
21306;DHT22;10812;51.838;5.838;2023-08-20T02:22:56;18.90;99.90
21306;DHT22;10812;51.838;5.838;2023-08-20T02:25:24;18.90;99.90
21306;DHT22;10812;51.838;5.838;2023-08-20T02:27:52;18.80;99.90
21306;DHT22;10812;51.838;5.838;2023-08-20T02:30:20;18.80;99.90
21306;DHT22;10812;51.838;5.838;2023-08-20T02:32:48;18.70;99.90
21306;DHT22;10812;51.838;5.838;2023-08-20T02:35:18;18.50;99.90
21306;DHT22;10812;51.838;5.838;2023-08-20T02:37:46;18.40;99.90
21306;DHT22;10812;51.838;5.838;2023-08-20T02:40:14;18.30;99.90
21306;DHT22;10812;51.838;5.838;2023-08-20T02:42:42;18.20;99.90
21306;DHT22;10812;51.838;5.838;2023-08-20T02:45:10;18.20;99.90
21306;DHT22;10812;51.838;5.838;2023-08-20T02:47:38;18.10;99.90
21306;DHT22;10812;51.838;5.838;2023-08-20T02:50:07;18.10;99.90
21306;DHT22;10812;51.838;5.838;2023-08-20T02:52:36;18.10;99.90
21306;DHT22;10812;51.838;5.838;2023-08-20T02:55:05;18.10;99.90
21306;DHT22;10812;51.838;5.838;2023-08-20T02:57:33;18.00;99.90
21306;DHT22;10812;51.838;5.838;2023-08-20T03:00:02;18.00;99.90
21306;DHT22;10812;51.838;5.838;2023-08-20T03:07:49;18.00;99.90
21306;DHT22;10812;51.838;5.838;2023-08-20T03:10:17;18.00;99.90
21306;DHT22;10812;51.838;5.838;2023-08-20T03:12:45;18.00;99.90
21306;DHT22;10812;51.838;5.838;2023-08-20T03:15:13;18.00;99.90
21306;DHT22;10812;51.838;5.838;2023-08-20T03:17:41;17.90;99.90
21306;DHT22;10812;51.838;5.838;2023-08-20T03:20:10;17.80;99.90
21306;DHT22;10812;51.838;5.838;2023-08-20T03:22:38;17.70;99.90
21306;DHT22;10812;51.838;5.838;2023-08-20T03:25:08;17.60;99.90
21306;DHT22;10812;51.838;5.838;2023-08-20T03:27:36;17.60;99.90
21306;DHT22;10812;51.838;5.838;2023-08-20T03:30:05;17.50;99.90
21306;DHT22;10812;51.838;5.838;2023-08-20T03:32:34;17.50;99.90
21306;DHT22;10812;51.838;5.838;2023-08-20T03:35:02;17.50;99.90
21306;DHT22;10812;51.838;5.838;2023-08-20T03:37:30;17.40;99.90
21306;DHT22;10812;51.838;5.838;2023-08-20T03:39:58;17.40;99.90
21306;DHT22;10812;51.838;5.838;2023-08-20T03:42:27;17.30;99.90
21306;DHT22;10812;51.838;5.838;2023-08-20T03:44:55;17.30;99.90
21306;DHT22;10812;51.838;5.838;2023-08-20T03:47:23;17.30;99.90
21306;DHT22;10812;51.838;5.838;2023-08-20T03:49:52;17.20;99.90
21306;DHT22;10812;51.838;5.838;2023-08-20T03:52:20;17.20;99.90
21306;DHT22;10812;51.838;5.838;2023-08-20T03:54:48;17.20;99.90
21306;DHT22;10812;51.838;5.838;2023-08-20T03:57:17;17.10;99.90
21306;DHT22;10812;51.838;5.838;2023-08-20T03:59:46;17.20;99.90
21306;DHT22;10812;51.838;5.838;2023-08-20T04:02:15;17.10;99.90
21306;DHT22;10812;51.838;5.838;2023-08-20T04:04:43;17.00;99.90
21306;DHT22;10812;51.838;5.838;2023-08-20T04:07:11;17.00;99.90
21306;DHT22;10812;51.838;5.838;2023-08-20T04:09:39;17.00;99.90
21306;DHT22;10812;51.838;5.838;2023-08-20T04:12:09;16.90;99.90
21306;DHT22;10812;51.838;5.838;2023-08-20T04:14:37;16.90;99.90
21306;DHT22;10812;51.838;5.838;2023-08-20T04:17:06;16.80;99.90
21306;DHT22;10812;51.838;5.838;2023-08-20T04:19:34;16.80;99.90
21306;DHT22;10812;51.838;5.838;2023-08-20T04:22:02;16.80;99.90
21306;DHT22;10812;51.838;5.838;2023-08-20T04:24:30;16.80;99.90
21306;DHT22;10812;51.838;5.838;2023-08-20T04:26:58;16.70;99.90
21306;DHT22;10812;51.838;5.838;2023-08-20T04:29:26;16.70;99.90
21306;DHT22;10812;51.838;5.838;2023-08-20T04:31:55;16.70;99.90
21306;DHT22;10812;51.838;5.838;2023-08-20T04:34:24;16.70;99.90
21306;DHT22;10812;51.838;5.838;2023-08-20T04:36:52;16.70;99.90
21306;DHT22;10812;51.838;5.838;2023-08-20T04:39:20;16.70;99.90
21306;DHT22;10812;51.838;5.838;2023-08-20T04:41:48;16.70;99.90
21306;DHT22;10812;51.838;5.838;2023-08-20T04:44:16;16.70;99.90
21306;DHT22;10812;51.838;5.838;2023-08-20T04:46:44;16.80;99.90
21306;DHT22;10812;51.838;5.838;2023-08-20T04:49:12;16.80;99.90
21306;DHT22;10812;51.838;5.838;2023-08-20T04:51:42;16.80;99.90
21306;DHT22;10812;51.838;5.838;2023-08-20T05:01:44;16.90;99.90
21306;DHT22;10812;51.838;5.838;2023-08-20T05:04:12;16.90;99.90
21306;DHT22;10812;51.838;5.838;2023-08-20T05:06:42;17.00;99.90
21306;DHT22;10812;51.838;5.838;2023-08-20T05:09:10;17.00;99.90
21306;DHT22;10812;51.838;5.838;2023-08-20T05:11:38;17.00;99.90
21306;DHT22;10812;51.838;5.838;2023-08-20T05:14:06;17.10;99.90
21306;DHT22;10812;51.838;5.838;2023-08-20T05:16:34;17.10;99.90
21306;DHT22;10812;51.838;5.838;2023-08-20T05:19:02;17.20;99.90
21306;DHT22;10812;51.838;5.838;2023-08-20T05:21:31;17.20;99.90
21306;DHT22;10812;51.838;5.838;2023-08-20T05:24:00;17.30;99.90
21306;DHT22;10812;51.838;5.838;2023-08-20T05:26:28;17.40;99.90
21306;DHT22;10812;51.838;5.838;2023-08-20T05:28:56;17.50;99.90
21306;DHT22;10812;51.838;5.838;2023-08-20T05:31:24;17.60;99.90
21306;DHT22;10812;51.838;5.838;2023-08-20T05:33:52;17.70;99.90
21306;DHT22;10812;51.838;5.838;2023-08-20T05:36:20;17.70;99.90
21306;DHT22;10812;51.838;5.838;2023-08-20T05:38:48;17.80;99.90
21306;DHT22;10812;51.838;5.838;2023-08-20T05:41:18;17.90;99.90
21306;DHT22;10812;51.838;5.838;2023-08-20T05:43:46;18.00;99.90
21306;DHT22;10812;51.838;5.838;2023-08-20T05:46:14;18.10;99.90
21306;DHT22;10812;51.838;5.838;2023-08-20T05:48:42;18.10;99.90
21306;DHT22;10812;51.838;5.838;2023-08-20T05:51:10;18.30;99.90
21306;DHT22;10812;51.838;5.838;2023-08-20T05:53:38;18.40;99.90
21306;DHT22;10812;51.838;5.838;2023-08-20T05:56:06;18.40;99.90
21306;DHT22;10812;51.838;5.838;2023-08-20T05:58:36;18.60;99.90
21306;DHT22;10812;51.838;5.838;2023-08-20T06:01:04;18.70;99.90
21306;DHT22;10812;51.838;5.838;2023-08-20T06:03:32;18.80;99.90
21306;DHT22;10812;51.838;5.838;2023-08-20T06:06:00;18.90;99.90
21306;DHT22;10812;51.838;5.838;2023-08-20T06:08:32;19.10;99.90
21306;DHT22;10812;51.838;5.838;2023-08-20T06:11:00;19.30;99.90
21306;DHT22;10812;51.838;5.838;2023-08-20T06:13:28;19.80;99.90
21306;DHT22;10812;51.838;5.838;2023-08-20T06:15:59;21.80;99.90
21306;DHT22;10812;51.838;5.838;2023-08-20T06:18:27;24.50;99.90
21306;DHT22;10812;51.838;5.838;2023-08-20T06:20:55;26.50;99.90
21306;DHT22;10812;51.838;5.838;2023-08-20T06:23:23;28.00;99.90
21306;DHT22;10812;51.838;5.838;2023-08-20T06:26:09;28.80;99.90
21306;DHT22;10812;51.838;5.838;2023-08-20T06:28:38;29.60;99.90
21306;DHT22;10812;51.838;5.838;2023-08-20T06:31:07;30.50;99.90
21306;DHT22;10812;51.838;5.838;2023-08-20T06:33:35;31.20;99.90
21306;DHT22;10812;51.838;5.838;2023-08-20T06:39:51;32.40;98.90
21306;DHT22;10812;51.838;5.838;2023-08-20T06:42:18;33.10;97.10
21306;DHT22;10812;51.838;5.838;2023-08-20T06:44:46;32.90;96.00
21306;DHT22;10812;51.838;5.838;2023-08-20T06:47:16;32.20;96.00
21306;DHT22;10812;51.838;5.838;2023-08-20T06:53:25;33.20;94.80
21306;DHT22;10812;51.838;5.838;2023-08-20T06:55:53;33.10;94.20
21306;DHT22;10812;51.838;5.838;2023-08-20T06:58:21;33.00;94.20
21306;DHT22;10812;51.838;5.838;2023-08-20T07:00:49;33.00;93.90
21306;DHT22;10812;51.838;5.838;2023-08-20T07:03:18;33.40;93.50
21306;DHT22;10812;51.838;5.838;2023-08-20T07:05:46;33.50;92.90
21306;DHT22;10812;51.838;5.838;2023-08-20T07:08:14;33.40;92.80
21306;DHT22;10812;51.838;5.838;2023-08-20T07:10:42;33.60;92.30
21306;DHT22;10812;51.838;5.838;2023-08-20T07:16:58;33.70;92.00
21306;DHT22;10812;51.838;5.838;2023-08-20T07:19:30;34.60;91.30
21306;DHT22;10812;51.838;5.838;2023-08-20T07:21:58;35.10;91.30
21306;DHT22;10812;51.838;5.838;2023-08-20T07:24:26;35.90;90.10
21306;DHT22;10812;51.838;5.838;2023-08-20T07:26:56;35.10;89.50
21306;DHT22;10812;51.838;5.838;2023-08-20T07:29:28;34.20;90.40
21306;DHT22;10812;51.838;5.838;2023-08-20T07:31:56;34.70;90.30
21306;DHT22;10812;51.838;5.838;2023-08-20T07:34:25;35.10;90.00
21306;DHT22;10812;51.838;5.838;2023-08-20T07:36:54;35.40;88.40
21306;DHT22;10812;51.838;5.838;2023-08-20T07:43:10;34.80;88.00
21306;DHT22;10812;51.838;5.838;2023-08-20T07:45:39;35.10;88.70
21306;DHT22;10812;51.838;5.838;2023-08-20T07:48:07;35.20;88.00
21306;DHT22;10812;51.838;5.838;2023-08-20T07:50:35;35.30;87.70
21306;DHT22;10812;51.838;5.838;2023-08-20T07:53:04;36.00;87.80
21306;DHT22;10812;51.838;5.838;2023-08-20T07:55:33;35.60;86.50
21306;DHT22;10812;51.838;5.838;2023-08-20T07:58:01;35.20;86.20
21306;DHT22;10812;51.838;5.838;2023-08-20T08:00:29;34.50;87.50
21306;DHT22;10812;51.838;5.838;2023-08-20T08:02:57;34.50;87.90
21306;DHT22;10812;51.838;5.838;2023-08-20T08:05:25;34.00;87.50
21306;DHT22;10812;51.838;5.838;2023-08-20T08:07:53;33.50;88.30
21306;DHT22;10812;51.838;5.838;2023-08-20T08:10:22;33.10;88.90
21306;DHT22;10812;51.838;5.838;2023-08-20T08:12:50;33.30;88.80
21306;DHT22;10812;51.838;5.838;2023-08-20T08:15:18;33.80;88.60
21306;DHT22;10812;51.838;5.838;2023-08-20T08:17:46;34.10;88.10
21306;DHT22;10812;51.838;5.838;2023-08-20T08:20:14;34.30;88.30
21306;DHT22;10812;51.838;5.838;2023-08-20T08:22:43;34.90;86.60
21306;DHT22;10812;51.838;5.838;2023-08-20T08:25:11;34.70;86.10
21306;DHT22;10812;51.838;5.838;2023-08-20T08:27:42;34.60;86.30
21306;DHT22;10812;51.838;5.838;2023-08-20T08:30:26;35.60;85.80
21306;DHT22;10812;51.838;5.838;2023-08-20T08:32:56;34.70;85.90
21306;DHT22;10812;51.838;5.838;2023-08-20T08:43:26;34.60;85.90
21306;DHT22;10812;51.838;5.838;2023-08-20T08:45:56;34.40;86.70
21306;DHT22;10812;51.838;5.838;2023-08-20T08:48:25;34.90;86.60
21306;DHT22;10812;51.838;5.838;2023-08-20T08:50:53;34.60;86.80
21306;DHT22;10812;51.838;5.838;2023-08-20T08:53:23;35.20;86.80
21306;DHT22;10812;51.838;5.838;2023-08-20T08:55:52;34.80;86.70
21306;DHT22;10812;51.838;5.838;2023-08-20T08:58:20;35.10;86.60
21306;DHT22;10812;51.838;5.838;2023-08-20T09:00:50;35.60;85.10
21306;DHT22;10812;51.838;5.838;2023-08-20T09:03:18;35.80;84.00
21306;DHT22;10812;51.838;5.838;2023-08-20T09:05:47;35.40;84.30
21306;DHT22;10812;51.838;5.838;2023-08-20T09:08:22;35.00;85.10
21306;DHT22;10812;51.838;5.838;2023-08-20T09:10:50;35.10;85.20
21306;DHT22;10812;51.838;5.838;2023-08-20T09:13:22;35.00;84.60
21306;DHT22;10812;51.838;5.838;2023-08-20T09:15:53;34.70;86.00
21306;DHT22;10812;51.838;5.838;2023-08-20T09:18:22;34.60;85.60
21306;DHT22;10812;51.838;5.838;2023-08-20T09:20:50;34.80;84.50
21306;DHT22;10812;51.838;5.838;2023-08-20T09:23:18;34.60;85.00
21306;DHT22;10812;51.838;5.838;2023-08-20T09:25:46;35.30;83.80
21306;DHT22;10812;51.838;5.838;2023-08-20T09:43:37;34.90;79.70
21306;DHT22;10812;51.838;5.838;2023-08-20T09:46:06;35.20;80.30
21306;DHT22;10812;51.838;5.838;2023-08-20T09:48:38;35.10;76.50
21306;DHT22;10812;51.838;5.838;2023-08-20T09:51:11;34.00;78.00
21306;DHT22;10812;51.838;5.838;2023-08-20T09:53:46;34.10;79.40
21306;DHT22;10812;51.838;5.838;2023-08-20T09:56:30;34.30;78.30
21306;DHT22;10812;51.838;5.838;2023-08-20T09:59:00;34.30;79.00
21306;DHT22;10812;51.838;5.838;2023-08-20T10:01:30;34.50;77.40
21306;DHT22;10812;51.838;5.838;2023-08-20T10:03:58;35.10;77.20
21306;DHT22;10812;51.838;5.838;2023-08-20T10:06:28;34.30;77.70
21306;DHT22;10812;51.838;5.838;2023-08-20T10:08:57;34.40;78.10
21306;DHT22;10812;51.838;5.838;2023-08-20T10:11:26;34.00;76.20
21306;DHT22;10812;51.838;5.838;2023-08-20T10:13:54;33.40;76.60
21306;DHT22;10812;51.838;5.838;2023-08-20T10:16:24;33.50;77.90
21306;DHT22;10812;51.838;5.838;2023-08-20T10:18:55;33.50;76.50
21306;DHT22;10812;51.838;5.838;2023-08-20T10:21:26;33.30;77.70
21306;DHT22;10812;51.838;5.838;2023-08-20T10:23:55;32.70;78.00
21306;DHT22;10812;51.838;5.838;2023-08-20T10:26:23;32.60;79.80
21306;DHT22;10812;51.838;5.838;2023-08-20T10:32:12;33.30;78.90
21306;DHT22;10812;51.838;5.838;2023-08-20T10:34:43;33.30;78.20
21306;DHT22;10812;51.838;5.838;2023-08-20T10:37:15;32.70;79.70
21306;DHT22;10812;51.838;5.838;2023-08-20T10:39:53;32.20;80.70
21306;DHT22;10812;51.838;5.838;2023-08-20T10:42:25;31.60;81.10
21306;DHT22;10812;51.838;5.838;2023-08-20T10:44:57;31.20;83.90
21306;DHT22;10812;51.838;5.838;2023-08-20T10:47:36;30.70;83.10
21306;DHT22;10812;51.838;5.838;2023-08-20T10:50:05;30.00;84.40
21306;DHT22;10812;51.838;5.838;2023-08-20T10:52:38;29.60;85.60
21306;DHT22;10812;51.838;5.838;2023-08-20T10:55:07;29.80;85.70
21306;DHT22;10812;51.838;5.838;2023-08-20T10:57:36;29.80;83.90
21306;DHT22;10812;51.838;5.838;2023-08-20T11:00:41;30.00;83.80
21306;DHT22;10812;51.838;5.838;2023-08-20T11:03:11;29.70;84.90
21306;DHT22;10812;51.838;5.838;2023-08-20T11:05:40;29.80;84.80
21306;DHT22;10812;51.838;5.838;2023-08-20T11:24:03;29.30;84.10
21306;DHT22;10812;51.838;5.838;2023-08-20T11:26:31;29.30;85.20
21306;DHT22;10812;51.838;5.838;2023-08-20T11:28:59;29.00;84.90
21306;DHT22;10812;51.838;5.838;2023-08-20T11:31:28;28.60;85.10
21306;DHT22;10812;51.838;5.838;2023-08-20T11:33:57;28.60;85.00
21306;DHT22;10812;51.838;5.838;2023-08-20T11:36:25;28.20;84.70
21306;DHT22;10812;51.838;5.838;2023-08-20T11:38:54;28.10;85.80
21306;DHT22;10812;51.838;5.838;2023-08-20T11:41:24;28.00;86.60
21306;DHT22;10812;51.838;5.838;2023-08-20T11:43:53;28.20;86.10
21306;DHT22;10812;51.838;5.838;2023-08-20T11:46:23;28.10;87.30
21306;DHT22;10812;51.838;5.838;2023-08-20T11:49:01;28.30;86.90
21306;DHT22;10812;51.838;5.838;2023-08-20T11:51:35;28.30;88.60
21306;DHT22;10812;51.838;5.838;2023-08-20T11:54:05;28.20;88.00
21306;DHT22;10812;51.838;5.838;2023-08-20T11:56:34;28.20;87.50
21306;DHT22;10812;51.838;5.838;2023-08-20T11:59:04;28.20;87.50
21306;DHT22;10812;51.838;5.838;2023-08-20T12:01:32;28.10;87.80
21306;DHT22;10812;51.838;5.838;2023-08-20T12:04:01;28.10;88.90
21306;DHT22;10812;51.838;5.838;2023-08-20T12:06:29;28.20;90.00
21306;DHT22;10812;51.838;5.838;2023-08-20T12:08:58;28.20;90.20
21306;DHT22;10812;51.838;5.838;2023-08-20T12:11:26;28.10;90.50
21306;DHT22;10812;51.838;5.838;2023-08-20T12:13:56;28.00;89.90
21306;DHT22;10812;51.838;5.838;2023-08-20T12:16:25;28.10;88.80
21306;DHT22;10812;51.838;5.838;2023-08-20T12:18:53;28.10;89.30
21306;DHT22;10812;51.838;5.838;2023-08-20T12:21:21;28.00;89.60
21306;DHT22;10812;51.838;5.838;2023-08-20T12:23:49;27.90;88.80
21306;DHT22;10812;51.838;5.838;2023-08-20T12:26:17;28.00;88.90
21306;DHT22;10812;51.838;5.838;2023-08-20T12:28:45;27.90;88.90
21306;DHT22;10812;51.838;5.838;2023-08-20T12:31:14;27.80;90.30
21306;DHT22;10812;51.838;5.838;2023-08-20T12:33:43;27.70;90.10
21306;DHT22;10812;51.838;5.838;2023-08-20T12:36:11;27.60;90.70
21306;DHT22;10812;51.838;5.838;2023-08-20T12:38:39;27.70;90.70
21306;DHT22;10812;51.838;5.838;2023-08-20T12:41:08;27.80;90.00
21306;DHT22;10812;51.838;5.838;2023-08-20T12:43:36;27.70;90.30
21306;DHT22;10812;51.838;5.838;2023-08-20T12:46:04;27.70;90.40
21306;DHT22;10812;51.838;5.838;2023-08-20T12:48:34;27.80;91.10
21306;DHT22;10812;51.838;5.838;2023-08-20T12:51:02;27.80;90.20
21306;DHT22;10812;51.838;5.838;2023-08-20T12:53:32;27.70;89.90
21306;DHT22;10812;51.838;5.838;2023-08-20T12:56:00;27.70;90.30
21306;DHT22;10812;51.838;5.838;2023-08-20T12:58:28;27.60;88.30
21306;DHT22;10812;51.838;5.838;2023-08-20T13:00:56;27.60;89.30
21306;DHT22;10812;51.838;5.838;2023-08-20T13:03:25;27.70;90.00
21306;DHT22;10812;51.838;5.838;2023-08-20T13:05:56;27.70;89.70
21306;DHT22;10812;51.838;5.838;2023-08-20T13:08:25;27.60;90.30
21306;DHT22;10812;51.838;5.838;2023-08-20T13:10:55;27.70;90.20
21306;DHT22;10812;51.838;5.838;2023-08-20T13:13:24;27.70;90.90
21306;DHT22;10812;51.838;5.838;2023-08-20T13:15:54;27.80;90.40
21306;DHT22;10812;51.838;5.838;2023-08-20T13:18:22;27.80;90.50
21306;DHT22;10812;51.838;5.838;2023-08-20T13:20:52;27.70;90.30
21306;DHT22;10812;51.838;5.838;2023-08-20T13:23:21;27.50;90.50
21306;DHT22;10812;51.838;5.838;2023-08-20T13:25:50;27.50;90.60
21306;DHT22;10812;51.838;5.838;2023-08-20T13:28:18;27.40;90.70
21306;DHT22;10812;51.838;5.838;2023-08-20T13:30:46;27.50;91.00
21306;DHT22;10812;51.838;5.838;2023-08-20T13:33:14;27.40;90.90
21306;DHT22;10812;51.838;5.838;2023-08-20T13:35:43;27.50;91.20
21306;DHT22;10812;51.838;5.838;2023-08-20T13:38:11;27.60;91.00
21306;DHT22;10812;51.838;5.838;2023-08-20T13:40:40;27.50;90.50
21306;DHT22;10812;51.838;5.838;2023-08-20T13:43:08;27.60;91.30
21306;DHT22;10812;51.838;5.838;2023-08-20T13:45:37;27.80;91.50
21306;DHT22;10812;51.838;5.838;2023-08-20T13:48:05;27.90;91.30
21306;DHT22;10812;51.838;5.838;2023-08-20T13:50:34;27.90;91.60
21306;DHT22;10812;51.838;5.838;2023-08-20T13:53:02;27.80;91.10
21306;DHT22;10812;51.838;5.838;2023-08-20T13:55:30;27.50;91.50
21306;DHT22;10812;51.838;5.838;2023-08-20T13:58:00;27.50;91.60
21306;DHT22;10812;51.838;5.838;2023-08-20T14:00:28;27.60;91.70
21306;DHT22;10812;51.838;5.838;2023-08-20T14:02:57;27.80;91.50
21306;DHT22;10812;51.838;5.838;2023-08-20T14:05:25;27.80;91.80
21306;DHT22;10812;51.838;5.838;2023-08-20T14:07:56;27.70;91.90
21306;DHT22;10812;51.838;5.838;2023-08-20T14:10:24;27.80;91.60
21306;DHT22;10812;51.838;5.838;2023-08-20T14:12:52;27.70;91.80
21306;DHT22;10812;51.838;5.838;2023-08-20T14:15:22;27.70;92.10
21306;DHT22;10812;51.838;5.838;2023-08-20T14:17:50;27.60;92.10
21306;DHT22;10812;51.838;5.838;2023-08-20T14:20:18;27.50;92.20
21306;DHT22;10812;51.838;5.838;2023-08-20T14:22:46;27.40;92.00
21306;DHT22;10812;51.838;5.838;2023-08-20T14:25:14;27.40;92.20
21306;DHT22;10812;51.838;5.838;2023-08-20T14:27:42;27.40;92.20
21306;DHT22;10812;51.838;5.838;2023-08-20T14:30:11;27.40;92.30
21306;DHT22;10812;51.838;5.838;2023-08-20T14:32:40;27.30;92.70
21306;DHT22;10812;51.838;5.838;2023-08-20T14:35:09;27.10;92.90
21306;DHT22;10812;51.838;5.838;2023-08-20T14:37:37;27.20;93.30
21306;DHT22;10812;51.838;5.838;2023-08-20T14:40:06;27.20;93.30
21306;DHT22;10812;51.838;5.838;2023-08-20T14:42:36;27.30;93.10
21306;DHT22;10812;51.838;5.838;2023-08-20T14:45:06;27.40;92.90
21306;DHT22;10812;51.838;5.838;2023-08-20T14:47:34;27.40;93.10
21306;DHT22;10812;51.838;5.838;2023-08-20T14:50:05;27.50;93.10
21306;DHT22;10812;51.838;5.838;2023-08-20T14:52:34;27.60;93.20
21306;DHT22;10812;51.838;5.838;2023-08-20T14:55:03;27.60;93.30
21306;DHT22;10812;51.838;5.838;2023-08-20T14:57:35;27.50;93.20
21306;DHT22;10812;51.838;5.838;2023-08-20T15:00:18;27.50;93.20
21306;DHT22;10812;51.838;5.838;2023-08-20T15:02:49;27.40;93.60
21306;DHT22;10812;51.838;5.838;2023-08-20T15:05:19;27.30;93.70
21306;DHT22;10812;51.838;5.838;2023-08-20T15:07:47;27.20;93.80
21306;DHT22;10812;51.838;5.838;2023-08-20T15:10:15;26.90;94.00
21306;DHT22;10812;51.838;5.838;2023-08-20T15:12:44;26.90;94.40
21306;DHT22;10812;51.838;5.838;2023-08-20T15:15:12;26.80;94.90
21306;DHT22;10812;51.838;5.838;2023-08-20T15:17:40;27.00;94.20
21306;DHT22;10812;51.838;5.838;2023-08-20T15:20:09;27.10;94.10
21306;DHT22;10812;51.838;5.838;2023-08-20T15:22:39;27.20;94.30
21306;DHT22;10812;51.838;5.838;2023-08-20T15:25:08;27.20;94.50
21306;DHT22;10812;51.838;5.838;2023-08-20T15:27:37;27.10;94.60
21306;DHT22;10812;51.838;5.838;2023-08-20T15:30:07;27.10;94.90
21306;DHT22;10812;51.838;5.838;2023-08-20T15:32:35;27.20;95.30
21306;DHT22;10812;51.838;5.838;2023-08-20T15:35:04;27.20;94.80
21306;DHT22;10812;51.838;5.838;2023-08-20T15:37:34;27.20;94.80
21306;DHT22;10812;51.838;5.838;2023-08-20T15:40:05;27.20;95.30
21306;DHT22;10812;51.838;5.838;2023-08-20T15:42:39;27.20;95.10
21306;DHT22;10812;51.838;5.838;2023-08-20T15:45:08;27.20;95.40
21306;DHT22;10812;51.838;5.838;2023-08-20T15:47:36;27.20;95.30
21306;DHT22;10812;51.838;5.838;2023-08-20T15:50:05;27.10;95.70
21306;DHT22;10812;51.838;5.838;2023-08-20T15:52:34;26.90;95.90
21306;DHT22;10812;51.838;5.838;2023-08-20T15:55:03;26.80;96.90
21306;DHT22;10812;51.838;5.838;2023-08-20T15:57:31;26.80;96.40
21306;DHT22;10812;51.838;5.838;2023-08-20T16:00:00;26.90;97.00
21306;DHT22;10812;51.838;5.838;2023-08-20T16:02:28;27.00;96.20
21306;DHT22;10812;51.838;5.838;2023-08-20T16:04:56;26.80;96.20
21306;DHT22;10812;51.838;5.838;2023-08-20T16:07:24;26.90;96.50
21306;DHT22;10812;51.838;5.838;2023-08-20T16:09:52;26.90;96.70
21306;DHT22;10812;51.838;5.838;2023-08-20T16:12:21;26.80;96.90
21306;DHT22;10812;51.838;5.838;2023-08-20T16:14:49;26.80;96.50
21306;DHT22;10812;51.838;5.838;2023-08-20T16:17:17;26.60;96.70
21306;DHT22;10812;51.838;5.838;2023-08-20T16:19:45;26.50;97.40
21306;DHT22;10812;51.838;5.838;2023-08-20T16:22:13;26.40;97.60
21306;DHT22;10812;51.838;5.838;2023-08-20T16:24:42;26.30;98.10
21306;DHT22;10812;51.838;5.838;2023-08-20T16:27:10;26.30;98.20
21306;DHT22;10812;51.838;5.838;2023-08-20T16:29:39;26.30;98.10
21306;DHT22;10812;51.838;5.838;2023-08-20T16:32:07;26.20;98.60
21306;DHT22;10812;51.838;5.838;2023-08-20T16:34:35;26.20;98.70
21306;DHT22;10812;51.838;5.838;2023-08-20T16:37:03;26.20;99.10
21306;DHT22;10812;51.838;5.838;2023-08-20T16:39:32;26.20;98.80
21306;DHT22;10812;51.838;5.838;2023-08-20T16:42:01;26.10;98.80
21306;DHT22;10812;51.838;5.838;2023-08-20T16:44:29;26.10;99.20
21306;DHT22;10812;51.838;5.838;2023-08-20T16:46:59;26.10;99.30
21306;DHT22;10812;51.838;5.838;2023-08-20T16:49:27;26.10;99.20
21306;DHT22;10812;51.838;5.838;2023-08-20T16:51:55;26.20;99.00
21306;DHT22;10812;51.838;5.838;2023-08-20T16:54:23;26.30;98.80
21306;DHT22;10812;51.838;5.838;2023-08-20T16:56:51;26.30;98.70
21306;DHT22;10812;51.838;5.838;2023-08-20T16:59:19;26.20;99.20
21306;DHT22;10812;51.838;5.838;2023-08-20T17:01:47;26.10;99.50
21306;DHT22;10812;51.838;5.838;2023-08-20T17:04:17;26.10;99.90
21306;DHT22;10812;51.838;5.838;2023-08-20T17:06:45;26.00;99.90
21306;DHT22;10812;51.838;5.838;2023-08-20T17:09:13;25.90;99.90
21306;DHT22;10812;51.838;5.838;2023-08-20T17:11:42;25.90;99.90
21306;DHT22;10812;51.838;5.838;2023-08-20T17:14:10;25.80;99.90
21306;DHT22;10812;51.838;5.838;2023-08-20T17:16:39;25.80;99.90
21306;DHT22;10812;51.838;5.838;2023-08-20T17:19:07;25.70;99.90
21306;DHT22;10812;51.838;5.838;2023-08-20T17:21:36;25.70;99.90